sensor_id;sensor_type;location;lat;lon;timestamp;pressure;altitude;pressure_sealevel;temperature;humidity
21359;BME280;13506;50.852;20.632;2022-09-09T00:00:15;97870.28;;;19.00;100.00
21359;BME280;13506;50.852;20.632;2022-09-09T00:03:12;97869.66;;;19.06;100.00
21359;BME280;13506;50.852;20.632;2022-09-09T00:05:48;97856.84;;;19.11;100.00
21359;BME280;13506;50.852;20.632;2022-09-09T00:08:22;97857.88;;;19.18;100.00
21359;BME280;13506;50.852;20.632;2022-09-09T00:10:58;97870.06;;;19.19;100.00
21359;BME280;13506;50.852;20.632;2022-09-09T00:13:34;97862.97;;;19.20;100.00
21359;BME280;13506;50.852;20.632;2022-09-09T00:16:09;97865.63;;;19.20;100.00
21359;BME280;13506;50.852;20.632;2022-09-09T00:18:56;97870.44;;;19.24;100.00
21359;BME280;13506;50.852;20.632;2022-09-09T00:21:35;97877.50;;;19.16;100.00
21359;BME280;13506;50.852;20.632;2022-09-09T00:24:10;97862.97;;;19.20;100.00
21359;BME280;13506;50.852;20.632;2022-09-09T00:26:44;97870.28;;;19.26;100.00
21359;BME280;13506;50.852;20.632;2022-09-09T00:29:25;97862.06;;;19.29;100.00
21359;BME280;13506;50.852;20.632;2022-09-09T00:32:05;97863.28;;;19.43;100.00
21359;BME280;13506;50.852;20.632;2022-09-09T00:34:36;97863.47;;;19.41;100.00
21359;BME280;13506;50.852;20.632;2022-09-09T00:37:09;97873.16;;;19.41;100.00
21359;BME280;13506;50.852;20.632;2022-09-09T00:39:41;97877.00;;;19.46;100.00
21359;BME280;13506;50.852;20.632;2022-09-09T00:42:15;97866.00;;;19.59;100.00
21359;BME280;13506;50.852;20.632;2022-09-09T00:44:56;97864.28;;;19.76;100.00
21359;BME280;13506;50.852;20.632;2022-09-09T00:47:40;97871.56;;;19.82;100.00
21359;BME280;13506;50.852;20.632;2022-09-09T00:50:29;97867.16;;;19.91;100.00
21359;BME280;13506;50.852;20.632;2022-09-09T00:53:12;97870.81;;;19.98;100.00
21359;BME280;13506;50.852;20.632;2022-09-09T00:55:49;97884.03;;;20.06;100.00
21359;BME280;13506;50.852;20.632;2022-09-09T00:58:21;97867.88;;;20.09;100.00
21359;BME280;13506;50.852;20.632;2022-09-09T01:00:55;97876.47;;;20.11;100.00
21359;BME280;13506;50.852;20.632;2022-09-09T01:03:34;97885.22;;;20.20;100.00
21359;BME280;13506;50.852;20.632;2022-09-09T01:06:13;97884.06;;;20.23;100.00
21359;BME280;13506;50.852;20.632;2022-09-09T01:09:07;97879.31;;;20.26;100.00
21359;BME280;13506;50.852;20.632;2022-09-09T01:11:49;97878.97;;;20.29;100.00
21359;BME280;13506;50.852;20.632;2022-09-09T01:14:32;97887.25;;;20.34;100.00
21359;BME280;13506;50.852;20.632;2022-09-09T01:17:14;97881.97;;;20.34;100.00
21359;BME280;13506;50.852;20.632;2022-09-09T01:20:04;97890.22;;;20.40;100.00
21359;BME280;13506;50.852;20.632;2022-09-09T01:22:51;97892.84;;;20.40;100.00
21359;BME280;13506;50.852;20.632;2022-09-09T01:25:30;97889.53;;;20.38;100.00
21359;BME280;13506;50.852;20.632;2022-09-09T01:28:10;97888.38;;;20.40;100.00
21359;BME280;13506;50.852;20.632;2022-09-09T01:30:41;97882.13;;;20.41;100.00
21359;BME280;13506;50.852;20.632;2022-09-09T01:33:15;97875.03;;;20.42;100.00
21359;BME280;13506;50.852;20.632;2022-09-09T01:35:48;97875.03;;;20.42;100.00
21359;BME280;13506;50.852;20.632;2022-09-09T01:38:18;97881.78;;;20.44;100.00
21359;BME280;13506;50.852;20.632;2022-09-09T01:40:47;97889.56;;;20.46;100.00
21359;BME280;13506;50.852;20.632;2022-09-09T01:43:20;97886.63;;;20.49;100.00
21359;BME280;13506;50.852;20.632;2022-09-09T01:45:52;97893.69;;;20.48;100.00
21359;BME280;13506;50.852;20.632;2022-09-09T01:48:22;97890.22;;;20.48;100.00
21359;BME280;13506;50.852;20.632;2022-09-09T01:51:00;97888.91;;;20.52;100.00
21359;BME280;13506;50.852;20.632;2022-09-09T01:53:28;97897.81;;;20.51;100.00
21359;BME280;13506;50.852;20.632;2022-09-09T01:56:05;97900.31;;;20.52;100.00
21359;BME280;13506;50.852;20.632;2022-09-09T01:58:57;97894.34;;;20.50;100.00
21359;BME280;13506;50.852;20.632;2022-09-09T02:01:42;97883.78;;;20.50;100.00
21359;BME280;13506;50.852;20.632;2022-09-09T02:04:27;97888.09;;;20.51;100.00
21359;BME280;13506;50.852;20.632;2022-09-09T02:07:00;97888.91;;;20.52;100.00
21359;BME280;13506;50.852;20.632;2022-09-09T02:09:30;97902.78;;;20.54;100.00
21359;BME280;13506;50.852;20.632;2022-09-09T02:12:05;97896.69;;;20.53;100.00
21359;BME280;13506;50.852;20.632;2022-09-09T02:14:52;97898.47;;;20.53;100.00
21359;BME280;13506;50.852;20.632;2022-09-09T02:17:26;97903.09;;;20.51;100.00
21359;BME280;13506;50.852;20.632;2022-09-09T02:20:06;97907.41;;;20.52;100.00
21359;BME280;13506;50.852;20.632;2022-09-09T02:22:45;97901.47;;;20.50;100.00
21359;BME280;13506;50.852;20.632;2022-09-09T02:25:19;97907.25;;;20.45;100.00
21359;BME280;13506;50.852;20.632;2022-09-09T02:27:51;97914.00;;;20.48;100.00
21359;BME280;13506;50.852;20.632;2022-09-09T02:30:20;97914.53;;;20.51;100.00
21359;BME280;13506;50.852;20.632;2022-09-09T02:32:55;97921.28;;;20.54;100.00
21359;BME280;13506;50.852;20.632;2022-09-09T02:35:31;97921.13;;;20.56;100.00
21359;BME280;13506;50.852;20.632;2022-09-09T02:38:04;97921.84;;;20.58;100.00
21359;BME280;13506;50.852;20.632;2022-09-09T02:40:33;97920.69;;;20.60;100.00
21359;BME280;13506;50.852;20.632;2022-09-09T02:43:03;97930.25;;;20.61;100.00
21359;BME280;13506;50.852;20.632;2022-09-09T02:45:42;97922.16;;;20.63;100.00
21359;BME280;13506;50.852;20.632;2022-09-09T02:48:21;97927.13;;;20.66;100.00
21359;BME280;13506;50.852;20.632;2022-09-09T02:50:58;97926.28;;;20.65;100.00
21359;BME280;13506;50.852;20.632;2022-09-09T02:53:41;97924.31;;;20.67;100.00
21359;BME280;13506;50.852;20.632;2022-09-09T02:56:14;97923.16;;;20.70;100.00
21359;BME280;13506;50.852;20.632;2022-09-09T02:58:45;97927.47;;;20.71;100.00
21359;BME280;13506;50.852;20.632;2022-09-09T03:01:14;97925.63;;;20.71;100.00
21359;BME280;13506;50.852;20.632;2022-09-09T03:03:41;97917.03;;;20.69;100.00
21359;BME280;13506;50.852;20.632;2022-09-09T03:06:15;97928.63;;;20.68;100.00
21359;BME280;13506;50.852;20.632;2022-09-09T03:08:46;97934.22;;;20.65;100.00
21359;BME280;13506;50.852;20.632;2022-09-09T03:11:19;97928.25;;;20.63;100.00
21359;BME280;13506;50.852;20.632;2022-09-09T03:13:47;97931.91;;;20.62;100.00
21359;BME280;13506;50.852;20.632;2022-09-09T03:16:16;97929.28;;;20.62;100.00
21359;BME280;13506;50.852;20.632;2022-09-09T03:18:47;97931.91;;;20.62;100.00
21359;BME280;13506;50.852;20.632;2022-09-09T03:21:15;97937.88;;;20.64;100.00
21359;BME280;13506;50.852;20.632;2022-09-09T03:23:44;97934.56;;;20.62;100.00
21359;BME280;13506;50.852;20.632;2022-09-09T03:26:12;97936.38;;;20.62;100.00
21359;BME280;13506;50.852;20.632;2022-09-09T03:28:44;97948.59;;;20.63;100.00
21359;BME280;13506;50.852;20.632;2022-09-09T03:31:18;97946.09;;;20.61;100.00
21359;BME280;13506;50.852;20.632;2022-09-09T03:33:46;97943.16;;;20.64;100.00
21359;BME280;13506;50.852;20.632;2022-09-09T03:36:16;97942.47;;;20.62;100.00
21359;BME280;13506;50.852;20.632;2022-09-09T03:38:44;97941.66;;;20.62;100.00
21359;BME280;13506;50.852;20.632;2022-09-09T03:41:12;97943.66;;;20.60;100.00
21359;BME280;13506;50.852;20.632;2022-09-09T03:43:40;97956.19;;;20.58;100.00
21359;BME280;13506;50.852;20.632;2022-09-09T03:46:08;97960.59;;;20.57;100.00
21359;BME280;13506;50.852;20.632;2022-09-09T03:48:36;97966.75;;;20.58;100.00
21359;BME280;13506;50.852;20.632;2022-09-09T03:51:05;97968.41;;;20.59;100.00
21359;BME280;13506;50.852;20.632;2022-09-09T03:53:35;97974.69;;;20.58;100.00
21359;BME280;13506;50.852;20.632;2022-09-09T03:56:05;97972.88;;;20.58;100.00
21359;BME280;13506;50.852;20.632;2022-09-09T03:58:33;97973.16;;;20.55;100.00
21359;BME280;13506;50.852;20.632;2022-09-09T04:01:08;97971.66;;;20.52;100.00
21359;BME280;13506;50.852;20.632;2022-09-09T04:03:38;97973.34;;;20.53;100.00
21359;BME280;13506;50.852;20.632;2022-09-09T04:06:08;97974.47;;;20.51;100.00
21359;BME280;13506;50.852;20.632;2022-09-09T04:08:37;97979.25;;;20.47;100.00
21359;BME280;13506;50.852;20.632;2022-09-09T04:11:07;97977.44;;;20.48;100.00
21359;BME280;13506;50.852;20.632;2022-09-09T04:13:37;97986.38;;;20.47;100.00
21359;BME280;13506;50.852;20.632;2022-09-09T04:16:10;97976.78;;;20.46;100.00
21359;BME280;13506;50.852;20.632;2022-09-09T04:18:43;97985.19;;;20.41;100.00
21359;BME280;13506;50.852;20.632;2022-09-09T04:21:11;97985.03;;;20.43;100.00
21359;BME280;13506;50.852;20.632;2022-09-09T04:23:40;97978.06;;;20.42;100.00
21359;BME280;13506;50.852;20.632;2022-09-09T04:26:08;97987.00;;;20.41;100.00
21359;BME280;13506;50.852;20.632;2022-09-09T04:28:36;97990.63;;;20.40;100.00
21359;BME280;13506;50.852;20.632;2022-09-09T04:31:13;97985.97;;;20.33;100.00
21359;BME280;13506;50.852;20.632;2022-09-09T04:33:44;97981.69;;;20.32;100.00
21359;BME280;13506;50.852;20.632;2022-09-09T04:36:13;97984.63;;;20.29;100.00
21359;BME280;13506;50.852;20.632;2022-09-09T04:38:41;97996.06;;;20.30;100.00
21359;BME280;13506;50.852;20.632;2022-09-09T04:41:10;97996.88;;;20.30;100.00
21359;BME280;13506;50.852;20.632;2022-09-09T04:43:41;98002.16;;;20.30;100.00
21359;BME280;13506;50.852;20.632;2022-09-09T04:46:09;98002.47;;;20.27;100.00
21359;BME280;13506;50.852;20.632;2022-09-09T04:48:36;98013.34;;;20.24;100.00
21359;BME280;13506;50.852;20.632;2022-09-09T04:51:12;98010.56;;;20.26;100.00
21359;BME280;13506;50.852;20.632;2022-09-09T04:53:40;98010.88;;;20.23;100.00
21359;BME280;13506;50.852;20.632;2022-09-09T04:56:10;98025.56;;;20.25;100.00
21359;BME280;13506;50.852;20.632;2022-09-09T04:58:45;98019.13;;;20.20;100.00
21359;BME280;13506;50.852;20.632;2022-09-09T05:01:17;98022.59;;;20.20;100.00
21359;BME280;13506;50.852;20.632;2022-09-09T05:03:47;98020.09;;;20.19;100.00
21359;BME280;13506;50.852;20.632;2022-09-09T05:06:21;98032.31;;;20.20;100.00
21359;BME280;13506;50.852;20.632;2022-09-09T05:08:53;98032.16;;;20.21;100.00
21359;BME280;13506;50.852;20.632;2022-09-09T05:11:27;98030.19;;;20.23;100.00
21359;BME280;13506;50.852;20.632;2022-09-09T05:13:59;98023.94;;;20.24;100.00
21359;BME280;13506;50.852;20.632;2022-09-09T05:16:29;98022.91;;;20.25;100.00
21359;BME280;13506;50.852;20.632;2022-09-09T05:18:57;98022.91;;;20.25;100.00
21359;BME280;13506;50.852;20.632;2022-09-09T05:21:29;98026.91;;;20.29;100.00
21359;BME280;13506;50.852;20.632;2022-09-09T05:23:56;98020.66;;;20.30;100.00
21359;BME280;13506;50.852;20.632;2022-09-09T05:26:24;98024.94;;;20.31;100.00
21359;BME280;13506;50.852;20.632;2022-09-09T05:28:53;98029.09;;;20.34;100.00
21359;BME280;13506;50.852;20.632;2022-09-09T05:31:21;98036.50;;;20.30;100.00
21359;BME280;13506;50.852;20.632;2022-09-09T05:33:51;98044.38;;;20.22;100.00
21359;BME280;13506;50.852;20.632;2022-09-09T05:36:21;98044.44;;;20.30;100.00
21359;BME280;13506;50.852;20.632;2022-09-09T05:38:54;98051.34;;;20.31;100.00
21359;BME280;13506;50.852;20.632;2022-09-09T05:41:23;98044.09;;;20.33;100.00
21359;BME280;13506;50.852;20.632;2022-09-09T05:43:54;98045.25;;;20.31;100.00
21359;BME280;13506;50.852;20.632;2022-09-09T05:46:23;98044.47;;;20.39;100.00
21359;BME280;13506;50.852;20.632;2022-09-09T05:48:53;98054.38;;;20.37;100.00
21359;BME280;13506;50.852;20.632;2022-09-09T05:51:28;98044.44;;;20.30;100.00
21359;BME280;13506;50.852;20.632;2022-09-09T05:53:59;98051.06;;;20.34;100.00
21359;BME280;13506;50.852;20.632;2022-09-09T05:56:30;98044.78;;;20.36;100.00
21359;BME280;13506;50.852;20.632;2022-09-09T05:58:59;98045.28;;;20.39;100.00
21359;BME280;13506;50.852;20.632;2022-09-09T06:01:30;98048.94;;;20.46;100.00
21359;BME280;13506;50.852;20.632;2022-09-09T06:04:00;98054.06;;;20.48;100.00
21359;BME280;13506;50.852;20.632;2022-09-09T06:06:32;98061.91;;;20.58;100.00
21359;BME280;13506;50.852;20.632;2022-09-09T06:09:06;98063.25;;;20.62;100.00
21359;BME280;13506;50.852;20.632;2022-09-09T06:11:37;98062.44;;;20.69;100.00
21359;BME280;13506;50.852;20.632;2022-09-09T06:14:06;98071.19;;;20.70;100.00
21359;BME280;13506;50.852;20.632;2022-09-09T06:16:34;98068.09;;;20.74;100.00
21359;BME280;13506;50.852;20.632;2022-09-09T06:19:07;98069.41;;;20.79;100.00
21359;BME280;13506;50.852;20.632;2022-09-09T06:21:36;98079.84;;;20.88;100.00
21359;BME280;13506;50.852;20.632;2022-09-09T06:24:07;98073.41;;;20.91;100.00
21359;BME280;13506;50.852;20.632;2022-09-09T06:26:38;98077.56;;;20.93;100.00
21359;BME280;13506;50.852;20.632;2022-09-09T06:29:07;98078.69;;;20.91;100.00
21359;BME280;13506;50.852;20.632;2022-09-09T06:31:36;98086.28;;;20.86;99.88
21359;BME280;13506;50.852;20.632;2022-09-09T06:34:14;98088.97;;;20.94;99.66
21359;BME280;13506;50.852;20.632;2022-09-09T06:36:46;98084.88;;;21.16;100.00
21359;BME280;13506;50.852;20.632;2022-09-09T06:39:15;98077.00;;;21.49;100.00
21359;BME280;13506;50.852;20.632;2022-09-09T06:41:43;98083.13;;;21.66;97.79
21359;BME280;13506;50.852;20.632;2022-09-09T06:44:31;98080.44;;;21.90;98.33
21359;BME280;13506;50.852;20.632;2022-09-09T06:47:00;98089.69;;;22.03;95.83
21359;BME280;13506;50.852;20.632;2022-09-09T06:49:27;98086.72;;;22.06;94.32
21359;BME280;13506;50.852;20.632;2022-09-09T06:51:55;98084.38;;;22.03;93.93
21359;BME280;13506;50.852;20.632;2022-09-09T06:54:24;98091.69;;;22.01;94.56
21359;BME280;13506;50.852;20.632;2022-09-09T06:56:52;98083.75;;;21.92;92.90
21359;BME280;13506;50.852;20.632;2022-09-09T06:59:23;98083.06;;;21.99;92.63
21359;BME280;13506;50.852;20.632;2022-09-09T07:01:53;98076.28;;;22.12;93.25
21359;BME280;13506;50.852;20.632;2022-09-09T07:04:22;98089.31;;;22.39;93.03
21359;BME280;13506;50.852;20.632;2022-09-09T07:06:49;98090.84;;;22.72;92.33
21359;BME280;13506;50.852;20.632;2022-09-09T07:09:23;98078.47;;;22.88;89.36
21359;BME280;13506;50.852;20.632;2022-09-09T07:11:53;98081.25;;;23.03;89.88
21359;BME280;13506;50.852;20.632;2022-09-09T07:14:23;98073.72;;;23.14;89.69
21359;BME280;13506;50.852;20.632;2022-09-09T07:16:58;98082.22;;;23.10;87.49
21359;BME280;13506;50.852;20.632;2022-09-09T07:19:29;98074.25;;;23.10;86.96
21359;BME280;13506;50.852;20.632;2022-09-09T07:21:57;98094.91;;;23.23;87.82
21359;BME280;13506;50.852;20.632;2022-09-09T07:24:26;98091.00;;;23.33;86.89
21359;BME280;13506;50.852;20.632;2022-09-09T07:26:57;98087.16;;;23.36;85.76
21359;BME280;13506;50.852;20.632;2022-09-09T07:29:26;98091.44;;;23.45;85.26
21359;BME280;13506;50.852;20.632;2022-09-09T07:31:53;98087.28;;;23.66;86.79
21359;BME280;13506;50.852;20.632;2022-09-09T07:34:26;98092.31;;;23.84;85.46
21359;BME280;13506;50.852;20.632;2022-09-09T07:36:54;98093.31;;;23.97;82.77
21359;BME280;13506;50.852;20.632;2022-09-09T07:39:23;98094.53;;;24.10;81.47
21359;BME280;13506;50.852;20.632;2022-09-09T07:41:55;98104.06;;;24.34;81.51
21359;BME280;13506;50.852;20.632;2022-09-09T07:44:25;98102.63;;;24.61;81.12
21359;BME280;13506;50.852;20.632;2022-09-09T07:46:59;98109.88;;;24.82;79.46
21359;BME280;13506;50.852;20.632;2022-09-09T07:49:33;98109.09;;;25.03;77.94
21359;BME280;13506;50.852;20.632;2022-09-09T07:52:03;98100.16;;;25.26;77.16
21359;BME280;13506;50.852;20.632;2022-09-09T07:54:32;98102.53;;;25.57;77.22
21359;BME280;13506;50.852;20.632;2022-09-09T07:57:04;98095.31;;;25.79;67.64
21359;BME280;13506;50.852;20.632;2022-09-09T07:59:34;98099.44;;;26.10;69.14
21359;BME280;13506;50.852;20.632;2022-09-09T08:02:03;98101.50;;;26.36;66.59
21359;BME280;13506;50.852;20.632;2022-09-09T08:04:33;98113.88;;;26.50;65.17
21359;BME280;13506;50.852;20.632;2022-09-09T08:07:02;98110.69;;;26.62;65.26
21359;BME280;13506;50.852;20.632;2022-09-09T08:09:34;98109.31;;;26.79;64.02
21359;BME280;13506;50.852;20.632;2022-09-09T08:12:12;98120.50;;;27.09;62.51
21359;BME280;13506;50.852;20.632;2022-09-09T08:14:40;98112.22;;;26.84;62.13
21359;BME280;13506;50.852;20.632;2022-09-09T08:17:08;98114.44;;;26.74;62.69
21359;BME280;13506;50.852;20.632;2022-09-09T08:19:37;98112.09;;;26.57;62.51
21359;BME280;13506;50.852;20.632;2022-09-09T08:22:10;98124.13;;;26.47;63.04
21359;BME280;13506;50.852;20.632;2022-09-09T08:24:39;98124.19;;;25.97;63.78
21359;BME280;13506;50.852;20.632;2022-09-09T08:27:08;98113.03;;;26.15;63.95
21359;BME280;13506;50.852;20.632;2022-09-09T08:29:38;98115.47;;;25.88;63.83
21359;BME280;13506;50.852;20.632;2022-09-09T08:32:06;98114.41;;;25.61;64.22
21359;BME280;13506;50.852;20.632;2022-09-09T08:34:35;98121.84;;;25.66;65.06
21359;BME280;13506;50.852;20.632;2022-09-09T08:37:07;98112.16;;;25.86;64.01
21359;BME280;13506;50.852;20.632;2022-09-09T08:39:39;98113.34;;;25.98;63.30
21359;BME280;13506;50.852;20.632;2022-09-09T08:42:27;98117.88;;;26.05;63.69
21359;BME280;13506;50.852;20.632;2022-09-09T08:45:19;98113.28;;;26.20;62.89
21359;BME280;13506;50.852;20.632;2022-09-09T08:48:13;98117.19;;;26.24;63.53
21359;BME280;13506;50.852;20.632;2022-09-09T08:50:46;98111.84;;;26.52;62.46
21359;BME280;13506;50.852;20.632;2022-09-09T08:53:23;98113.41;;;26.75;60.89
21359;BME280;13506;50.852;20.632;2022-09-09T08:55:58;98126.41;;;26.85;59.48
21359;BME280;13506;50.852;20.632;2022-09-09T08:58:35;98121.22;;;26.76;59.09
21359;BME280;13506;50.852;20.632;2022-09-09T09:01:51;98117.56;;;26.84;58.23
21359;BME280;13506;50.852;20.632;2022-09-09T09:04:40;98125.94;;;26.74;58.53
21359;BME280;13506;50.852;20.632;2022-09-09T09:07:24;98123.31;;;26.88;58.47
21359;BME280;13506;50.852;20.632;2022-09-09T09:10:03;98117.50;;;27.26;58.14
21359;BME280;13506;50.852;20.632;2022-09-09T09:12:41;98125.78;;;27.64;56.12
21359;BME280;13506;50.852;20.632;2022-09-09T09:15:19;98122.53;;;27.82;53.97
21359;BME280;13506;50.852;20.632;2022-09-09T09:17:51;98122.72;;;27.80;53.91
21359;BME280;13506;50.852;20.632;2022-09-09T09:20:31;98127.50;;;27.98;54.37
21359;BME280;13506;50.852;20.632;2022-09-09T09:23:03;98126.22;;;27.81;53.83
21359;BME280;13506;50.852;20.632;2022-09-09T09:25:34;98132.00;;;27.85;53.86
21359;BME280;13506;50.852;20.632;2022-09-09T09:28:13;98127.06;;;28.08;53.38
21359;BME280;13506;50.852;20.632;2022-09-09T09:30:49;98122.50;;;28.35;54.47
21359;BME280;13506;50.852;20.632;2022-09-09T09:33:26;98129.47;;;28.63;53.17
21359;BME280;13506;50.852;20.632;2022-09-09T09:35:56;98133.91;;;28.96;52.14
21359;BME280;13506;50.852;20.632;2022-09-09T09:38:28;98134.22;;;29.19;51.52
21359;BME280;13506;50.852;20.632;2022-09-09T09:40:59;98130.00;;;29.37;50.12
21359;BME280;13506;50.852;20.632;2022-09-09T09:43:30;98130.34;;;29.47;50.32
21359;BME280;13506;50.852;20.632;2022-09-09T09:46:04;98135.53;;;29.42;50.29
21359;BME280;13506;50.852;20.632;2022-09-09T09:48:34;98137.19;;;29.43;50.22
21359;BME280;13506;50.852;20.632;2022-09-09T09:51:07;98130.91;;;29.24;49.27
21359;BME280;13506;50.852;20.632;2022-09-09T09:53:38;98130.13;;;29.17;50.50
21359;BME280;13506;50.852;20.632;2022-09-09T09:56:10;98128.72;;;29.01;50.42
21359;BME280;13506;50.852;20.632;2022-09-09T09:58:51;98142.56;;;28.98;51.24
21359;BME280;13506;50.852;20.632;2022-09-09T10:01:27;98143.34;;;29.05;49.78
21359;BME280;13506;50.852;20.632;2022-09-09T10:04:00;98149.09;;;29.15;50.24
21359;BME280;13506;50.852;20.632;2022-09-09T10:06:32;98153.81;;;29.20;50.58
21359;BME280;13506;50.852;20.632;2022-09-09T10:09:02;98158.28;;;29.33;50.40
21359;BME280;13506;50.852;20.632;2022-09-09T10:11:43;98154.38;;;29.29;49.19
21359;BME280;13506;50.852;20.632;2022-09-09T10:14:19;98165.16;;;29.15;49.18
21359;BME280;13506;50.852;20.632;2022-09-09T10:17:04;98153.59;;;29.08;49.19
21359;BME280;13506;50.852;20.632;2022-09-09T10:19:37;98162.41;;;28.63;49.53
21359;BME280;13506;50.852;20.632;2022-09-09T10:22:25;98161.81;;;28.68;49.64
21359;BME280;13506;50.852;20.632;2022-09-09T10:25:23;98156.03;;;28.65;49.72
21359;BME280;13506;50.852;20.632;2022-09-09T10:28:29;98158.66;;;28.85;50.68
21359;BME280;13506;50.852;20.632;2022-09-09T10:31:15;98152.34;;;29.24;49.56
21359;BME280;13506;50.852;20.632;2022-09-09T10:33:53;98145.94;;;29.25;48.69
21359;BME280;13506;50.852;20.632;2022-09-09T10:36:26;98149.72;;;29.04;48.18
21359;BME280;13506;50.852;20.632;2022-09-09T10:39:00;98153.28;;;28.85;48.61
21359;BME280;13506;50.852;20.632;2022-09-09T10:41:44;98150.06;;;28.69;48.52
21359;BME280;13506;50.852;20.632;2022-09-09T10:44:36;98163.28;;;28.31;49.22
21359;BME280;13506;50.852;20.632;2022-09-09T10:47:32;98166.59;;;28.06;49.48
21359;BME280;13506;50.852;20.632;2022-09-09T10:50:29;98173.56;;;27.94;49.92
21359;BME280;13506;50.852;20.632;2022-09-09T10:53:14;98179.16;;;27.99;49.00
21359;BME280;13506;50.852;20.632;2022-09-09T10:55:44;98176.47;;;27.99;49.39
21359;BME280;13506;50.852;20.632;2022-09-09T10:58:22;98170.06;;;28.07;48.20
21359;BME280;13506;50.852;20.632;2022-09-09T11:00:54;98172.94;;;28.38;47.42
21359;BME280;13506;50.852;20.632;2022-09-09T11:03:27;98153.38;;;28.58;47.66
21359;BME280;13506;50.852;20.632;2022-09-09T11:06:01;98158.03;;;28.82;49.74
21359;BME280;13506;50.852;20.632;2022-09-09T11:08:35;98163.84;;;29.31;48.07
21359;BME280;13506;50.852;20.632;2022-09-09T11:11:12;98162.63;;;29.66;46.67
21359;BME280;13506;50.852;20.632;2022-09-09T11:13:49;98154.50;;;29.79;46.15
21359;BME280;13506;50.852;20.632;2022-09-09T11:16:27;98175.47;;;29.89;44.62
21359;BME280;13506;50.852;20.632;2022-09-09T11:19:03;98165.00;;;30.06;44.11
21359;BME280;13506;50.852;20.632;2022-09-09T11:21:38;98172.91;;;30.00;44.53
21359;BME280;13506;50.852;20.632;2022-09-09T11:24:18;98168.03;;;29.91;44.14
21359;BME280;13506;50.852;20.632;2022-09-09T11:26:54;98175.16;;;29.78;43.89
21359;BME280;13506;50.852;20.632;2022-09-09T11:29:59;98171.88;;;29.76;44.12
21359;BME280;13506;50.852;20.632;2022-09-09T11:35:41;98173.63;;;29.89;45.02
21359;BME280;13506;50.852;20.632;2022-09-09T11:38:21;98170.94;;;29.89;44.41
21359;BME280;13506;50.852;20.632;2022-09-09T11:40:58;98174.84;;;29.93;44.33
21359;BME280;13506;50.852;20.632;2022-09-09T11:43:30;98174.88;;;29.87;44.84
21359;BME280;13506;50.852;20.632;2022-09-09T11:46:02;98184.16;;;29.84;44.22
21359;BME280;13506;50.852;20.632;2022-09-09T11:48:33;98181.41;;;29.66;44.35
21359;BME280;13506;50.852;20.632;2022-09-09T11:51:05;98184.47;;;29.31;44.56
21359;BME280;13506;50.852;20.632;2022-09-09T11:53:36;98183.06;;;29.21;43.55
21359;BME280;13506;50.852;20.632;2022-09-09T11:56:29;98184.34;;;29.12;44.42
21359;BME280;13506;50.852;20.632;2022-09-09T11:59:01;98178.00;;;29.00;45.20
21359;BME280;13506;50.852;20.632;2022-09-09T12:01:38;98179.00;;;28.99;44.84
21359;BME280;13506;50.852;20.632;2022-09-09T12:04:33;98175.50;;;28.98;45.55
21359;BME280;13506;50.852;20.632;2022-09-09T12:07:20;98168.94;;;28.94;45.50
21359;BME280;13506;50.852;20.632;2022-09-09T12:09:54;98168.66;;;29.16;44.91
21359;BME280;13506;50.852;20.632;2022-09-09T12:12:29;98162.56;;;29.40;44.38
21359;BME280;13506;50.852;20.632;2022-09-09T12:15:21;98155.78;;;29.70;44.83
21359;BME280;13506;50.852;20.632;2022-09-09T12:17:51;98151.97;;;29.84;43.53
21359;BME280;13506;50.852;20.632;2022-09-09T12:20:22;98157.81;;;29.81;43.10
21359;BME280;13506;50.852;20.632;2022-09-09T12:23:15;98164.53;;;29.90;43.21
21359;BME280;13506;50.852;20.632;2022-09-09T12:26:13;98165.91;;;29.74;43.69
21359;BME280;13506;50.852;20.632;2022-09-09T12:28:59;98170.38;;;29.42;43.90
21359;BME280;13506;50.852;20.632;2022-09-09T12:31:36;98166.63;;;29.11;44.12
21359;BME280;13506;50.852;20.632;2022-09-09T12:34:11;98163.97;;;28.98;45.09
21359;BME280;13506;50.852;20.632;2022-09-09T12:36:42;98157.44;;;28.80;44.47
21359;BME280;13506;50.852;20.632;2022-09-09T12:39:19;98156.66;;;28.47;44.88
21359;BME280;13506;50.852;20.632;2022-09-09T12:41:52;98163.28;;;28.24;45.45
21359;BME280;13506;50.852;20.632;2022-09-09T12:44:25;98168.66;;;28.17;46.18
21359;BME280;13506;50.852;20.632;2022-09-09T12:46:56;98157.53;;;28.07;46.17
21359;BME280;13506;50.852;20.632;2022-09-09T12:49:32;98162.06;;;28.00;46.06
21359;BME280;13506;50.852;20.632;2022-09-09T12:52:06;98177.09;;;27.94;46.44
21359;BME280;13506;50.852;20.632;2022-09-09T12:54:37;98172.31;;;27.90;47.30
21359;BME280;13506;50.852;20.632;2022-09-09T12:57:05;98171.94;;;27.86;48.06
21359;BME280;13506;50.852;20.632;2022-09-09T12:59:40;98165.78;;;27.86;47.64
21359;BME280;13506;50.852;20.632;2022-09-09T13:02:20;98161.03;;;27.88;47.46
21359;BME280;13506;50.852;20.632;2022-09-09T13:04:48;98153.59;;;27.90;47.41
21359;BME280;13506;50.852;20.632;2022-09-09T13:07:17;98156.50;;;27.88;46.76
21359;BME280;13506;50.852;20.632;2022-09-09T13:09:46;98159.19;;;27.88;47.53
21359;BME280;13506;50.852;20.632;2022-09-09T13:12:18;98155.88;;;27.99;47.53
21359;BME280;13506;50.852;20.632;2022-09-09T13:14:50;98158.16;;;28.09;47.16
21359;BME280;13506;50.852;20.632;2022-09-09T13:17:22;98165.34;;;28.22;47.37
21359;BME280;13506;50.852;20.632;2022-09-09T13:19:50;98159.97;;;28.42;47.00
21359;BME280;13506;50.852;20.632;2022-09-09T13:22:26;98153.19;;;28.53;47.04
21359;BME280;13506;50.852;20.632;2022-09-09T13:25:18;98153.38;;;28.65;47.21